createdAt,value
2022-11-03T00:01:38.092Z,4.22
2022-11-03T00:04:07.246Z,4.00
2022-11-03T00:06:37.298Z,3.83
2022-11-03T00:09:07.590Z,4.22
2022-11-03T00:11:37.115Z,4.07
2022-11-03T00:14:05.908Z,3.60
2022-11-03T00:16:35.029Z,3.95
2022-11-03T00:19:03.476Z,3.90
2022-11-03T00:21:32.194Z,3.92
2022-11-03T00:24:02.753Z,4.05
2022-11-03T00:26:33.632Z,3.90
2022-11-03T00:29:03.195Z,4.43
2022-11-03T00:31:32.645Z,3.53
2022-11-03T00:34:01.799Z,4.25
2022-11-03T00:36:31.531Z,3.53
2022-11-03T00:39:01.509Z,3.42
2022-11-03T00:41:30.117Z,3.35
2022-11-03T00:43:58.472Z,3.72
2022-11-03T00:46:28.019Z,3.63
2022-11-03T00:48:56.286Z,3.60
2022-11-03T00:51:27.445Z,3.95
2022-11-03T00:53:57.513Z,3.70
2022-11-03T00:56:29.088Z,3.72
2022-11-03T01:01:28.213Z,3.80
2022-11-03T01:04:16.411Z,3.40
2022-11-03T01:06:53.533Z,3.75
2022-11-03T01:09:23.529Z,3.08
2022-11-03T01:11:58.499Z,4.22
2022-11-03T01:14:28.907Z,3.28
2022-11-03T01:16:57.146Z,3.50
2022-11-03T01:19:25.965Z,3.70
2022-11-03T01:21:54.317Z,3.83
2022-11-03T01:24:23.238Z,3.65
2022-11-03T01:26:53.184Z,3.47
2022-11-03T01:29:21.586Z,3.80
2022-11-03T01:31:50.107Z,3.55
2022-11-03T01:34:20.307Z,3.85
2022-11-03T01:36:49.111Z,3.58
2022-11-03T01:39:18.949Z,3.53
2022-11-03T01:41:49.389Z,3.60
2022-11-03T01:44:36.610Z,3.45
2022-11-03T01:47:13.399Z,3.47
2022-11-03T01:49:46.414Z,3.50
2022-11-03T01:52:19.531Z,3.55
2022-11-03T01:54:51.625Z,3.35
2022-11-03T01:57:26.612Z,3.83
2022-11-03T01:59:59.149Z,3.65
2022-11-03T02:02:28.554Z,3.55
2022-11-03T02:05:00.604Z,3.35
2022-11-03T02:07:35.097Z,3.47
2022-11-03T02:10:03.906Z,3.67
2022-11-03T02:12:33.476Z,3.33
2022-11-03T02:15:07.351Z,3.25
2022-11-03T02:17:37.247Z,3.15
2022-11-03T02:20:08.656Z,3.50
2022-11-03T02:23:00.212Z,3.58
2022-11-03T02:25:46.480Z,3.45
2022-11-03T02:28:17.467Z,3.40
2022-11-03T02:30:51.305Z,3.42
2022-11-03T02:33:37.743Z,3.17
2022-11-03T02:36:13.095Z,3.17
2022-11-03T02:38:48.193Z,3.13
2022-11-03T02:41:20.029Z,3.22
2022-11-03T02:43:49.850Z,3.03
2022-11-03T02:46:19.370Z,3.15
2022-11-03T02:48:49.049Z,3.10
2022-11-03T02:51:17.356Z,3.38
2022-11-03T02:53:51.595Z,3.28
2022-11-03T02:56:22.756Z,3.22
2022-11-03T02:58:57.352Z,3.50
2022-11-03T03:01:34.586Z,2.88
2022-11-03T03:04:07.210Z,3.72
2022-11-03T03:06:40.466Z,3.30
2022-11-03T03:09:13.794Z,3.65
2022-11-03T03:11:45.886Z,3.10
2022-11-03T03:14:18.669Z,3.67
2022-11-03T03:16:56.656Z,3.28
2022-11-03T03:19:33.057Z,3.35
2022-11-03T03:22:07.276Z,3.35
2022-11-03T03:24:41.475Z,3.17
2022-11-03T03:27:13.797Z,3.85
2022-11-03T03:29:46.381Z,3.30
2022-11-03T03:32:20.277Z,3.25
2022-11-03T03:34:51.205Z,3.15
2022-11-03T03:37:21.657Z,3.17
2022-11-03T03:39:54.744Z,3.40
2022-11-03T03:42:29.440Z,3.17
2022-11-03T03:45:00.267Z,3.42
2022-11-03T03:47:31.166Z,3.58
2022-11-03T03:49:59.860Z,3.63
2022-11-03T03:52:28.592Z,3.97
2022-11-03T03:54:57.513Z,3.38
2022-11-03T03:57:29.546Z,3.30
2022-11-03T03:59:57.925Z,3.35
2022-11-03T04:02:26.190Z,3.40
2022-11-03T04:04:54.458Z,3.25
2022-11-03T04:07:43.504Z,3.15
2022-11-03T04:10:12.171Z,3.33
2022-11-03T04:13:01.124Z,2.85
2022-11-03T04:15:47.163Z,3.15
2022-11-03T04:18:35.117Z,3.40
2022-11-03T04:21:20.907Z,3.63
2022-11-03T04:23:49.286Z,3.35
2022-11-03T04:26:19.219Z,3.47
2022-11-03T04:28:48.821Z,3.13
2022-11-03T04:31:18.942Z,3.40
2022-11-03T04:33:48.103Z,3.15
2022-11-03T04:36:20.120Z,3.35
2022-11-03T04:38:49.013Z,3.92
2022-11-03T04:41:18.589Z,3.53
2022-11-03T04:43:49.626Z,3.60
2022-11-03T04:46:25.402Z,3.20
2022-11-03T04:48:54.615Z,4.18
2022-11-03T04:51:25.889Z,3.63
2022-11-03T04:53:56.337Z,3.88
2022-11-03T04:56:26.178Z,4.47
2022-11-03T04:58:55.810Z,3.80
2022-11-03T05:01:25.454Z,4.05
2022-11-03T05:03:55.475Z,4.32
2022-11-03T05:06:27.432Z,4.55
2022-11-03T05:08:59.511Z,3.83
2022-11-03T05:11:32.434Z,4.25
2022-11-03T05:14:04.292Z,5.07
2022-11-03T05:16:33.870Z,4.50
2022-11-03T05:19:02.125Z,4.10
2022-11-03T05:21:30.506Z,4.63
2022-11-03T05:24:04.737Z,4.63
2022-11-03T05:26:35.515Z,4.57
2022-11-03T05:29:11.489Z,4.77
2022-11-03T05:31:42.613Z,3.58
2022-11-03T05:34:33.611Z,4.38
2022-11-03T05:37:09.767Z,4.10
2022-11-03T05:39:39.546Z,4.50
2022-11-03T05:42:21.890Z,4.20
2022-11-03T05:44:52.863Z,4.07
2022-11-03T05:47:23.709Z,4.38
2022-11-03T05:49:55.819Z,4.53
2022-11-03T05:52:27.741Z,6.85
2022-11-03T05:54:59.860Z,5.95
2022-11-03T05:57:31.236Z,5.40
2022-11-03T06:00:00.996Z,5.40
2022-11-03T06:02:37.788Z,5.10
2022-11-03T06:05:16.607Z,5.20
2022-11-03T06:07:45.139Z,5.57
2022-11-03T06:10:26.783Z,5.18
2022-11-03T06:13:03.623Z,4.90
2022-11-03T06:15:35.999Z,5.05
2022-11-03T06:18:14.987Z,4.90
2022-11-03T06:20:43.811Z,4.50
2022-11-03T06:23:15.525Z,4.50
2022-11-03T06:25:44.250Z,4.90
2022-11-03T06:28:18.991Z,4.80
2022-11-03T06:30:50.080Z,5.07
2022-11-03T06:33:24.778Z,4.68
2022-11-03T06:35:56.762Z,4.35
2022-11-03T06:38:27.141Z,4.45
2022-11-03T06:40:55.515Z,4.07
2022-11-03T06:43:27.721Z,3.58
2022-11-03T06:45:59.711Z,3.80
2022-11-03T06:48:30.376Z,3.80
2022-11-03T06:50:59.978Z,3.97
2022-11-03T06:53:32.429Z,4.10
2022-11-03T06:56:01.425Z,3.95
2022-11-03T06:58:33.804Z,4.22
2022-11-03T07:01:11.343Z,4.05
2022-11-03T07:03:39.984Z,4.13
2022-11-03T07:06:18.937Z,3.75
2022-11-03T07:08:48.882Z,3.70
2022-11-03T07:11:19.892Z,3.53
2022-11-03T07:13:51.114Z,3.88
2022-11-03T07:16:28.813Z,4.13
2022-11-03T07:18:58.279Z,4.03
2022-11-03T07:21:34.029Z,4.25
2022-11-03T07:24:05.889Z,4.35
2022-11-03T07:26:35.180Z,4.40
2022-11-03T07:29:03.740Z,4.47
2022-11-03T07:31:33.380Z,3.80
2022-11-03T07:34:01.753Z,4.53
2022-11-03T07:36:33.042Z,4.90
2022-11-03T07:39:03.393Z,4.55
2022-11-03T07:41:34.891Z,4.70
2022-11-03T07:46:33.738Z,4.35
2022-11-03T07:49:04.439Z,4.88
2022-11-03T07:51:34.831Z,4.23
2022-11-03T07:54:10.599Z,4.15
2022-11-03T07:56:43.651Z,3.80
2022-11-03T07:59:17.520Z,4.57
2022-11-03T08:01:50.600Z,3.80
2022-11-03T08:04:22.506Z,4.22
2022-11-03T08:06:51.461Z,4.10
2022-11-03T08:09:20.130Z,3.85
2022-11-03T08:11:48.922Z,4.13
2022-11-03T08:14:17.142Z,3.90
2022-11-03T08:16:47.021Z,3.85
2022-11-03T08:19:15.243Z,4.28
2022-11-03T08:21:43.514Z,4.40
2022-11-03T08:24:11.843Z,5.22
2022-11-03T08:26:40.376Z,4.68
2022-11-03T08:29:08.664Z,4.65
2022-11-03T08:31:36.911Z,4.43
2022-11-03T08:34:06.529Z,5.28
2022-11-03T08:36:34.898Z,5.03
2022-11-03T08:39:03.426Z,5.03
2022-11-03T08:41:31.874Z,4.82
2022-11-03T08:44:00.159Z,4.53
2022-11-03T08:46:28.539Z,4.70
2022-11-03T08:48:57.046Z,4.55
2022-11-03T08:51:26.770Z,4.72
2022-11-03T08:53:55.210Z,4.57
2022-11-03T08:56:23.693Z,4.32
2022-11-03T08:58:52.078Z,4.72
2022-11-03T09:01:20.431Z,5.03
2022-11-03T09:03:48.830Z,5.28
2022-11-03T09:06:17.174Z,5.15
2022-11-03T09:11:35.359Z,4.30
2022-11-03T09:14:04.012Z,4.97
2022-11-03T09:16:32.226Z,5.40
2022-11-03T09:19:00.427Z,4.95
2022-11-03T09:21:28.686Z,4.40
2022-11-03T09:24:00.199Z,4.60
2022-11-03T09:26:28.511Z,4.90
2022-11-03T09:28:56.753Z,4.38
2022-11-03T09:31:28.288Z,4.38
2022-11-03T09:33:56.626Z,4.05
2022-11-03T09:36:24.838Z,4.22
2022-11-03T09:38:53.185Z,4.70
2022-11-03T09:41:44.248Z,4.47
2022-11-03T09:44:12.877Z,4.47
2022-11-03T09:46:41.228Z,4.32
2022-11-03T09:49:09.496Z,3.80
2022-11-03T09:51:37.846Z,4.00
2022-11-03T09:54:07.101Z,4.15
2022-11-03T09:56:38.125Z,4.03
2022-11-03T09:59:16.907Z,4.05
2022-11-03T10:01:48.775Z,4.30
2022-11-03T10:04:18.341Z,4.28
2022-11-03T10:06:46.605Z,3.70
2022-11-03T10:09:18.908Z,4.15
2022-11-03T10:11:49.143Z,4.10
2022-11-03T10:14:18.878Z,3.65
2022-11-03T10:16:53.943Z,3.58
2022-11-03T10:19:22.524Z,3.83
2022-11-03T10:21:52.146Z,3.70
2022-11-03T10:24:20.499Z,3.65
2022-11-03T10:26:52.298Z,3.38
2022-11-03T10:29:22.759Z,3.42
2022-11-03T10:31:53.483Z,3.63
2022-11-03T10:34:27.812Z,4.07
2022-11-03T10:37:18.251Z,3.53
2022-11-03T10:39:46.901Z,3.58
2022-11-03T10:42:22.237Z,3.65
2022-11-03T10:44:53.819Z,3.42
2022-11-03T10:52:25.550Z,3.47
2022-11-03T10:54:55.313Z,2.90
2022-11-03T10:57:25.434Z,3.33
2022-11-03T10:59:55.495Z,3.17
2022-11-03T11:02:27.726Z,3.40
2022-11-03T11:05:00.819Z,2.83
2022-11-03T11:07:34.172Z,3.03
2022-11-03T11:10:08.841Z,3.25
2022-11-03T11:12:38.545Z,3.35
2022-11-03T11:15:38.789Z,3.17
2022-11-03T11:18:09.692Z,3.10
2022-11-03T11:20:39.573Z,3.10
2022-11-03T11:23:52.549Z,2.80
2022-11-03T11:26:42.094Z,3.42
2022-11-03T11:29:44.251Z,2.88
2022-11-03T11:32:52.075Z,3.17
2022-11-03T11:36:06.450Z,3.33
2022-11-03T11:39:13.434Z,3.33
2022-11-03T11:42:10.879Z,3.88
2022-11-03T11:45:03.945Z,4.95
2022-11-03T11:47:47.693Z,5.28
2022-11-03T11:50:32.912Z,5.00
2022-11-03T11:53:27.460Z,4.70
2022-11-03T11:56:01.535Z,4.70
2022-11-03T11:58:37.473Z,4.75
2022-11-03T12:01:09.023Z,5.38
2022-11-03T12:03:40.433Z,5.40
2022-11-03T12:06:09.812Z,4.47
2022-11-03T12:08:38.075Z,4.72
2022-11-03T12:11:09.218Z,5.40
2022-11-03T12:13:49.033Z,4.95
2022-11-03T12:16:34.817Z,4.72
2022-11-03T12:19:35.175Z,5.30
2022-11-03T12:22:03.931Z,4.93
2022-11-03T12:24:49.808Z,4.82
2022-11-03T12:27:43.374Z,5.45
2022-11-03T12:30:17.474Z,5.45
2022-11-03T12:32:46.659Z,4.70
2022-11-03T12:35:15.146Z,5.28
2022-11-03T12:37:43.772Z,5.13
2022-11-03T12:40:14.683Z,4.47
2022-11-03T12:42:44.351Z,4.82
2022-11-03T12:45:13.755Z,4.60
2022-11-03T12:47:42.588Z,4.18
2022-11-03T12:50:11.589Z,4.55
2022-11-03T12:52:39.819Z,4.95
2022-11-03T12:55:08.907Z,5.57
2022-11-03T12:57:37.073Z,4.85
2022-11-03T13:00:09.021Z,4.43
2022-11-03T13:02:37.461Z,5.10
2022-11-03T13:05:07.093Z,5.05
2022-11-03T13:07:35.516Z,4.53
2022-11-03T13:10:04.853Z,4.93
2022-11-03T13:12:33.109Z,5.25
2022-11-03T13:15:02.938Z,4.70
2022-11-03T13:17:46.007Z,5.40
2022-11-03T13:20:21.008Z,5.07
2022-11-03T13:22:49.192Z,5.68
2022-11-03T13:25:17.791Z,5.18
2022-11-03T13:27:46.239Z,5.00
2022-11-03T13:30:14.800Z,4.72
2022-11-03T13:32:44.392Z,5.30
2022-11-03T13:35:14.141Z,4.78
2022-11-03T13:37:42.908Z,5.05
2022-11-03T13:40:35.724Z,5.22
2022-11-03T13:43:01.481Z,5.00
2022-11-03T13:45:29.802Z,4.93
2022-11-03T13:50:50.998Z,5.03
2022-11-03T13:56:11.510Z,5.57
2022-11-03T14:01:32.186Z,5.53
2022-11-03T14:06:50.093Z,5.53
2022-11-03T14:09:18.349Z,6.28
2022-11-03T14:12:03.874Z,5.85
2022-11-03T14:14:32.372Z,6.15
2022-11-03T14:17:00.720Z,5.65
2022-11-03T14:19:37.965Z,5.60
2022-11-03T14:22:09.880Z,6.17
2022-11-03T14:24:38.306Z,5.93
2022-11-03T14:27:06.504Z,5.65
2022-11-03T14:29:34.806Z,5.90
2022-11-03T14:32:03.273Z,6.00
2022-11-03T14:34:32.887Z,6.30
2022-11-03T14:37:01.252Z,5.65
2022-11-03T14:39:30.214Z,5.78
2022-11-03T14:42:03.484Z,6.30
2022-11-03T14:44:32.134Z,5.90
2022-11-03T14:47:01.429Z,6.18
2022-11-03T14:49:30.274Z,6.10
2022-11-03T14:52:01.772Z,6.13
2022-11-03T14:54:31.467Z,6.50
2022-11-03T14:57:00.112Z,6.85
2022-11-03T14:59:28.456Z,6.18
2022-11-03T15:01:56.991Z,6.90
2022-11-03T15:04:25.804Z,6.70
2022-11-03T15:06:54.472Z,6.55
2022-11-03T15:09:24.143Z,6.32
2022-11-03T15:11:52.355Z,6.70
2022-11-03T15:14:20.601Z,6.75
2022-11-03T15:16:49.269Z,6.93
2022-11-03T15:19:17.938Z,7.63
2022-11-03T15:21:46.543Z,10.38
2022-11-03T15:27:05.191Z,85.93
2022-11-03T15:29:33.787Z,108.40
2022-11-03T15:32:02.341Z,160.75
2022-11-03T15:34:30.928Z,99.32
2022-11-03T15:36:59.546Z,47.55
2022-11-03T15:39:29.793Z,45.22
2022-11-03T15:42:00.175Z,44.10
2022-11-03T15:44:30.359Z,39.05
2022-11-03T15:46:59.150Z,38.05
2022-11-03T15:49:28.001Z,51.20
2022-11-03T15:51:56.629Z,31.58
2022-11-03T15:54:25.276Z,29.90
2022-11-03T15:56:53.960Z,31.08
2022-11-03T15:59:22.781Z,26.48
2022-11-03T16:01:59.697Z,24.27
2022-11-03T16:04:41.437Z,23.20
2022-11-03T16:07:10.137Z,18.38
2022-11-03T16:09:38.786Z,19.40
2022-11-03T16:12:07.710Z,17.27
2022-11-03T16:14:36.411Z,16.25
2022-11-03T16:17:06.972Z,16.75
2022-11-03T16:19:35.618Z,17.55
2022-11-03T16:22:04.158Z,15.40
2022-11-03T16:24:35.262Z,15.30
2022-11-03T16:27:04.838Z,13.88
2022-11-03T16:29:33.722Z,13.68
2022-11-03T16:32:02.402Z,13.27
2022-11-03T16:34:32.573Z,13.63
2022-11-03T16:37:01.165Z,13.85
2022-11-03T16:39:30.066Z,12.20
2022-11-03T16:41:58.684Z,12.98
2022-11-03T16:44:27.650Z,12.10
2022-11-03T16:46:56.364Z,12.25
2022-11-03T16:49:24.970Z,13.00
2022-11-03T16:51:55.193Z,11.95
2022-11-03T16:54:23.861Z,39.40
2022-11-03T16:56:54.879Z,96.22
2022-11-03T16:59:26.511Z,79.53
2022-11-03T17:01:55.578Z,82.68
2022-11-03T17:04:24.347Z,88.18
2022-11-03T17:06:52.880Z,85.38
2022-11-03T17:09:25.223Z,72.55
2022-11-03T17:11:53.785Z,58.30
2022-11-03T17:14:22.450Z,76.15
2022-11-03T17:16:51.038Z,106.18
2022-11-03T17:19:19.708Z,106.25
2022-11-03T17:21:48.206Z,110.82
2022-11-03T17:24:16.806Z,99.78
2022-11-03T17:26:52.443Z,108.18
2022-11-03T17:29:22.413Z,83.32
2022-11-03T17:31:51.416Z,58.20
2022-11-03T17:34:23.190Z,72.00
2022-11-03T17:36:52.007Z,69.97
2022-11-03T17:39:21.714Z,54.45
2022-11-03T17:41:51.705Z,49.65
2022-11-03T17:44:20.245Z,43.55
2022-11-03T17:46:48.961Z,38.75
2022-11-03T17:49:17.510Z,80.90
2022-11-03T17:51:46.447Z,98.35
2022-11-03T17:54:18.467Z,121.03
2022-11-03T17:56:47.144Z,129.63
2022-11-03T17:59:17.927Z,113.57
2022-11-03T18:01:48.024Z,124.03
2022-11-03T18:04:17.324Z,98.40
2022-11-03T18:06:46.323Z,76.72
2022-11-03T18:09:14.911Z,71.13
2022-11-03T18:12:01.699Z,58.50
2022-11-03T18:14:32.078Z,56.30
2022-11-03T18:17:00.671Z,108.70
2022-11-03T18:19:29.304Z,119.07
2022-11-03T18:21:59.026Z,189.32
2022-11-03T18:24:28.971Z,123.60
2022-11-03T18:26:57.609Z,95.97
2022-11-03T18:29:26.338Z,68.22
2022-11-03T18:31:57.101Z,49.63
2022-11-03T18:34:27.308Z,43.70
2022-11-03T18:36:55.955Z,37.45
2022-11-03T18:39:26.076Z,32.47
2022-11-03T18:41:55.068Z,32.25
2022-11-03T18:44:24.373Z,29.52
2022-11-03T18:46:54.612Z,27.85
2022-11-03T18:49:25.092Z,25.35
2022-11-03T18:52:02.114Z,24.45
2022-11-03T18:54:31.740Z,18.42
2022-11-03T18:57:00.621Z,17.77
2022-11-03T18:59:30.989Z,16.58
2022-11-03T19:01:59.944Z,16.02
2022-11-03T19:04:31.935Z,13.73
2022-11-03T19:07:00.542Z,13.15
2022-11-03T19:09:29.224Z,13.43
2022-11-03T19:11:59.434Z,12.93
2022-11-03T19:14:29.767Z,13.10
2022-11-03T19:19:48.668Z,11.13
2022-11-03T19:22:18.419Z,11.88
2022-11-03T19:24:47.367Z,11.82
2022-11-03T19:27:16.939Z,11.07
2022-11-03T19:29:46.840Z,11.07
2022-11-03T19:32:18.139Z,10.90
2022-11-03T19:34:48.354Z,11.85
2022-11-03T19:37:16.933Z,10.82
2022-11-03T19:39:45.834Z,11.15
2022-11-03T19:42:31.327Z,10.77
2022-11-03T19:45:00.834Z,10.23
2022-11-03T19:47:32.770Z,10.60
2022-11-03T19:50:03.518Z,9.35
2022-11-03T19:52:32.737Z,9.25
2022-11-03T19:55:05.734Z,9.82
2022-11-03T19:57:34.793Z,10.40
2022-11-03T20:00:03.444Z,9.98
2022-11-03T20:02:36.683Z,9.15
2022-11-03T20:05:07.134Z,11.02
2022-11-03T20:07:35.932Z,10.15
2022-11-03T20:10:04.594Z,10.40
2022-11-03T20:12:33.195Z,9.57
2022-11-03T20:15:01.774Z,9.85
2022-11-03T20:17:30.731Z,10.60
2022-11-03T20:19:59.460Z,10.25
2022-11-03T20:22:31.407Z,10.30
2022-11-03T20:25:01.304Z,8.95
2022-11-03T20:27:29.897Z,9.63
2022-11-03T20:29:58.492Z,9.48
2022-11-03T20:32:27.147Z,9.07
2022-11-03T20:34:55.824Z,9.30
2022-11-03T20:37:24.398Z,8.65
2022-11-03T20:39:54.482Z,8.60
2022-11-03T20:42:24.508Z,9.50
2022-11-03T20:44:53.499Z,8.77
2022-11-03T20:47:24.624Z,9.60
2022-11-03T20:49:53.260Z,9.10
2022-11-03T20:52:21.864Z,9.30
2022-11-03T20:54:51.129Z,9.40
2022-11-03T20:57:21.075Z,8.88
2022-11-03T20:59:49.661Z,9.07
2022-11-03T21:02:18.388Z,9.00
2022-11-03T21:04:47.096Z,126.97
2022-11-03T21:07:15.770Z,69.63
2022-11-03T21:09:44.338Z,91.07
2022-11-03T21:12:14.523Z,137.05
2022-11-03T21:15:06.202Z,407.20
2022-11-03T21:17:52.302Z,209.55
2022-11-03T21:20:21.001Z,156.80
2022-11-03T21:22:54.101Z,127.68
2022-11-03T21:25:34.042Z,99.93
2022-11-03T21:28:02.703Z,161.25
2022-11-03T21:30:32.640Z,115.32
2022-11-03T21:33:01.265Z,117.63
2022-11-03T21:35:29.902Z,127.40
2022-11-03T21:37:58.494Z,149.02
2022-11-03T21:40:27.057Z,238.95
2022-11-03T21:43:13.120Z,179.57
2022-11-03T21:45:43.273Z,145.80
2022-11-03T21:48:29.321Z,110.45
2022-11-03T21:51:02.165Z,79.82
2022-11-03T21:53:31.239Z,62.03
2022-11-03T21:55:59.888Z,52.88
2022-11-03T21:58:28.561Z,49.67
2022-11-03T22:01:03.942Z,51.10
2022-11-03T22:03:32.731Z,47.67
2022-11-03T22:06:01.984Z,44.78
2022-11-03T22:08:30.656Z,45.50
2022-11-03T22:11:19.628Z,43.08
2022-11-03T22:13:49.074Z,39.45
2022-11-03T22:16:42.367Z,42.58
2022-11-03T22:19:29.464Z,39.08
2022-11-03T22:22:15.820Z,30.30
2022-11-03T22:25:01.917Z,26.92
2022-11-03T22:27:31.438Z,23.25
2022-11-03T22:30:17.709Z,22.73
2022-11-03T22:32:51.637Z,19.63
2022-11-03T22:35:37.827Z,17.02
2022-11-03T22:38:07.934Z,14.75
2022-11-03T22:40:54.959Z,14.75
2022-11-03T22:43:41.442Z,13.15
2022-11-03T22:46:10.488Z,12.40
2022-11-03T22:48:40.424Z,12.00
2022-11-03T22:51:10.026Z,11.77
2022-11-03T22:53:56.964Z,10.40
2022-11-03T22:56:26.638Z,10.45
2022-11-03T22:58:55.467Z,10.52
2022-11-03T23:01:26.661Z,10.77
2022-11-03T23:03:57.687Z,10.82
2022-11-03T23:06:27.019Z,9.07
2022-11-03T23:08:56.362Z,9.32
2022-11-03T23:11:26.156Z,9.13
2022-11-03T23:13:55.616Z,8.30
2022-11-03T23:16:25.145Z,7.88
2022-11-03T23:19:12.116Z,7.72
2022-11-03T23:21:42.392Z,7.20
2022-11-03T23:24:28.426Z,7.05
2022-11-03T23:26:59.404Z,6.18
2022-11-03T23:29:28.350Z,6.32
2022-11-03T23:31:57.371Z,5.72
2022-11-03T23:34:25.963Z,4.90
2022-11-03T23:36:56.609Z,5.03
2022-11-03T23:39:25.209Z,4.22
2022-11-03T23:41:53.827Z,4.30
2022-11-03T23:44:22.409Z,4.15
2022-11-03T23:47:08.788Z,3.72
2022-11-03T23:49:37.441Z,4.13
2022-11-03T23:52:07.329Z,4.05
2022-11-03T23:54:36.019Z,4.10
2022-11-03T23:57:22.370Z,4.80
2022-11-03T23:59:50.973Z,4.22
